Time;durP1;ratioP1;P1;durP2;ratioP2;P2;SDS_P1;SDS_P2;PMS_P1;PMS_P2;Temp;Humidity;BMP_temperature;BMP_pressure;BME280_temperature;BME280_humidity;BME280_pressure;Samples;Min_cycle;Max_cycle;Signal;HPM_P1;HPM_P2
2022/03/03 00:00:08;;;;;;;;;29.00;28.80;;;;;;;;5229841;28;8792;-72
2022/03/03 00:02:43;;;;;;;;;34.00;31.00;;;;;;;;5249393;28;8819;-72
2022/03/03 00:05:14;;;;;;;;;40.80;37.00;;;;;;;;5231361;28;8761;-72
2022/03/03 00:07:46;;;;;;;;;34.60;31.60;;;;;;;;5214707;28;8769;-72
2022/03/03 00:10:17;;;;;;;;;39.80;36.60;;;;;;;;5248551;28;8811;-72
2022/03/03 00:12:47;;;;;;;;;43.75;38.25;;;;;;;;5230195;28;8765;-72
2022/03/03 00:15:18;;;;;;;;;27.00;26.25;;;;;;;;5249070;28;8796;-71
2022/03/03 00:17:50;;;;;;;;;39.80;38.20;;;;;;;;5230908;28;11504;-72
2022/03/03 00:20:21;;;;;;;;;52.00;46.20;;;;;;;;5249014;28;8865;-72
2022/03/03 00:22:53;;;;;;;;;53.80;48.60;;;;;;;;5248453;28;9582;-72
2022/03/03 00:25:24;;;;;;;;;55.40;47.80;;;;;;;;5248887;28;8788;-71
2022/03/03 00:27:55;;;;;;;;;68.50;56.50;;;;;;;;5248866;28;8773;-71
2022/03/03 00:30:26;;;;;;;;;72.80;59.60;;;;;;;;5230979;28;9534;-71
2022/03/03 00:32:57;;;;;;;;;66.20;55.40;;;;;;;;5248610;28;8807;-71
2022/03/03 00:35:28;;;;;;;;;53.00;47.80;;;;;;;;5230699;28;8792;-71
2022/03/03 00:38:00;;;;;;;;;57.80;48.20;;;;;;;;5248494;28;8789;-71
2022/03/03 00:40:31;;;;;;;;;53.80;47.40;;;;;;;;5230811;28;9507;-71
2022/03/03 00:43:04;;;;;;;;;38.80;36.60;;;;;;;;5214001;28;8793;-71
2022/03/03 00:45:35;;;;;;;;;42.80;39.80;;;;;;;;5213884;28;8904;-72
2022/03/03 00:48:07;;;;;;;;;35.20;32.20;;;;;;;;5214103;28;8862;-72
2022/03/03 00:50:38;;;;;;;;;42.00;41.20;;;;;;;;5248025;28;8800;-71
2022/03/03 00:53:10;;;;;;;;;42.80;41.20;;;;;;;;5214302;28;8781;-71
2022/03/03 00:55:41;;;;;;;;;38.60;35.60;;;;;;;;5230510;28;8745;-71
2022/03/03 00:58:12;;;;;;;;;38.20;37.00;;;;;;;;5213325;28;9556;-72
2022/03/03 01:00:43;;;;;;;;;34.20;32.20;;;;;;;;5213571;28;8816;-71
2022/03/03 01:03:15;;;;;;;;;31.00;30.00;;;;;;;;5213848;28;8780;-72
2022/03/03 01:05:46;;;;;;;;;32.80;32.00;;;;;;;;5230050;28;8777;-73
2022/03/03 01:08:17;;;;;;;;;24.80;24.80;;;;;;;;5230124;28;8789;-73
2022/03/03 01:11:07;;;;;;;;;30.80;30.80;;;;;;;;5216220;28;8910;-73
2022/03/03 01:13:39;;;;;;;;;25.80;23.00;;;;;;;;5213636;28;9479;-73
2022/03/03 01:16:10;;;;;;;;;24.60;24.00;;;;;;;;5229378;28;8827;-72
2022/03/03 01:18:42;;;;;;;;;36.20;34.00;;;;;;;;5263342;28;8776;-72
2022/03/03 01:21:14;;;;;;;;;27.40;26.00;;;;;;;;5229341;28;8800;-71
2022/03/03 01:23:46;;;;;;;;;33.40;33.40;;;;;;;;5213267;28;8799;-71
2022/03/03 01:26:18;;;;;;;;;13.20;12.40;;;;;;;;5229996;28;9605;-72
2022/03/03 01:28:49;;;;;;;;;28.80;27.00;;;;;;;;5229544;28;8809;-72
2022/03/03 01:31:20;;;;;;;;;34.00;32.60;;;;;;;;5229732;28;9523;-72
2022/03/03 01:33:52;;;;;;;;;31.80;31.20;;;;;;;;5229300;28;8924;-71
2022/03/03 01:36:23;;;;;;;;;25.40;25.00;;;;;;;;5212795;28;8905;-71
2022/03/03 01:38:54;;;;;;;;;30.40;29.60;;;;;;;;5229460;28;8800;-72
2022/03/03 01:41:25;;;;;;;;;30.20;29.40;;;;;;;;5229573;28;9495;-71
2022/03/03 01:43:56;;;;;;;;;28.60;27.00;;;;;;;;5229337;28;8776;-72
2022/03/03 01:46:28;;;;;;;;;30.00;25.60;;;;;;;;5229461;28;8787;-72
2022/03/03 01:48:59;;;;;;;;;6.00;3.80;;;;;;;;5229285;28;8800;-73
2022/03/03 01:51:31;;;;;;;;;26.20;25.60;;;;;;;;5212477;28;8823;-73
2022/03/03 01:54:02;;;;;;;;;27.60;27.20;;;;;;;;5228687;28;9642;-73
2022/03/03 01:56:34;;;;;;;;;17.80;17.60;;;;;;;;5246787;28;8889;-73
2022/03/03 01:59:05;;;;;;;;;27.80;26.20;;;;;;;;5229099;28;8784;-73
2022/03/03 02:01:37;;;;;;;;;33.60;33.40;;;;;;;;5212276;28;8788;-72
2022/03/03 02:04:27;;;;;;;;;29.80;29.40;;;;;;;;5247003;28;8963;-71
2022/03/03 02:07:00;;;;;;;;;41.40;32.60;;;;;;;;5228859;28;8795;-71
2022/03/03 02:09:31;;;;;;;;;30.20;30.00;;;;;;;;5212190;28;8873;-71
2022/03/03 02:12:03;;;;;;;;;30.40;30.00;;;;;;;;5229117;28;9018;-72
2022/03/03 02:14:42;;;;;;;;;26.00;26.00;;;;;;;;5244580;28;8819;-77
2022/03/03 02:17:15;;;;;;;;;39.20;38.20;;;;;;;;5211975;28;8820;-72
2022/03/03 02:19:46;;;;;;;;;40.80;40.80;;;;;;;;5211332;28;8850;-76
2022/03/03 02:22:17;;;;;;;;;38.60;38.00;;;;;;;;5229225;28;8761;-72
2022/03/03 02:24:48;;;;;;;;;30.50;30.00;;;;;;;;5212238;28;8785;-73
2022/03/03 02:27:20;;;;;;;;;31.20;28.80;;;;;;;;5225889;28;8884;-74
2022/03/03 02:29:52;;;;;;;;;28.00;27.60;;;;;;;;5216892;28;8801;-74
2022/03/03 02:32:23;;;;;;;;;32.80;30.20;;;;;;;;5217155;28;8747;-73
2022/03/03 02:34:54;;;;;;;;;38.20;35.40;;;;;;;;5200220;28;9561;-73
2022/03/03 02:37:30;;;;;;;;;45.60;39.80;;;;;;;;5184510;28;8775;-72
2022/03/03 02:40:02;;;;;;;;;33.20;33.20;;;;;;;;5208139;28;8908;-72
2022/03/03 02:42:34;;;;;;;;;20.80;18.00;;;;;;;;5210031;28;8780;-71
2022/03/03 02:45:24;;;;;;;;;49.00;43.20;;;;;;;;5225049;28;8793;-72
2022/03/03 02:48:13;;;;;;;;;36.00;33.20;;;;;;;;5228072;28;9541;-72
2022/03/03 02:50:44;;;;;;;;;30.40;30.20;;;;;;;;5245863;28;8824;-72
2022/03/03 02:53:15;;;;;;;;;21.00;21.00;;;;;;;;5228056;28;8765;-73
2022/03/03 02:55:46;;;;;;;;;28.40;28.40;;;;;;;;5228247;28;8875;-73
2022/03/03 02:58:17;;;;;;;;;35.50;34.75;;;;;;;;5211686;28;8781;-73
2022/03/03 03:00:49;;;;;;;;;32.80;30.80;;;;;;;;5211476;28;11452;-72
2022/03/03 03:03:20;;;;;;;;;34.20;32.00;;;;;;;;5209974;28;8827;-74
2022/03/03 03:05:51;;;;;;;;;26.20;25.80;;;;;;;;5226271;28;8839;-73
2022/03/03 03:08:41;;;;;;;;;40.40;34.20;;;;;;;;5231286;28;8839;-74
2022/03/03 03:11:12;;;;;;;;;34.80;33.60;;;;;;;;5228358;28;8869;-74
2022/03/03 03:13:43;;;;;;;;;37.60;37.00;;;;;;;;5245335;28;8943;-72
2022/03/03 03:16:14;;;;;;;;;20.80;20.00;;;;;;;;5228418;28;8924;-72
2022/03/03 03:18:45;;;;;;;;;36.60;32.80;;;;;;;;5227801;28;9496;-74
2022/03/03 03:21:16;;;;;;;;;17.20;16.60;;;;;;;;5227988;28;8815;-74
2022/03/03 03:23:47;;;;;;;;;33.60;31.00;;;;;;;;5227873;28;8816;-74
2022/03/03 03:26:18;;;;;;;;;37.40;36.20;;;;;;;;5227584;28;8781;-74
2022/03/03 03:28:49;;;;;;;;;33.75;30.00;;;;;;;;5227954;28;8781;-74
2022/03/03 03:31:20;;;;;;;;;29.20;28.20;;;;;;;;5227752;28;11516;-74
2022/03/03 03:33:51;;;;;;;;;33.20;32.60;;;;;;;;5211440;28;8796;-74
2022/03/03 03:36:23;;;;;;;;;38.60;34.40;;;;;;;;5245759;28;8816;-73
2022/03/03 03:38:54;;;;;;;;;29.00;26.40;;;;;;;;5227819;28;8788;-73
2022/03/03 03:41:25;;;;;;;;;27.60;24.60;;;;;;;;5227660;28;8789;-72
2022/03/03 03:44:15;;;;;;;;;30.60;30.40;;;;;;;;5227446;28;9463;-75
2022/03/03 03:46:46;;;;;;;;;27.80;26.20;;;;;;;;5228652;28;9483;-76
2022/03/03 03:49:17;;;;;;;;;28.60;27.80;;;;;;;;5231224;28;8865;-76
2022/03/03 03:51:49;;;;;;;;;21.60;21.20;;;;;;;;5231536;28;8788;-76
2022/03/03 03:54:20;;;;;;;;;25.60;25.60;;;;;;;;5231427;28;8819;-76
2022/03/03 03:56:51;;;;;;;;;24.75;21.00;;;;;;;;5215226;28;8780;-76
2022/03/03 03:59:22;;;;;;;;;33.60;33.60;;;;;;;;5231521;28;8809;-74
2022/03/03 04:01:53;;;;;;;;;46.00;45.00;;;;;;;;5231828;28;8784;-74
2022/03/03 04:04:24;;;;;;;;;35.20;33.80;;;;;;;;5214760;28;8801;-74
2022/03/03 04:07:14;;;;;;;;;84.60;65.20;;;;;;;;5248856;28;8824;-76
2022/03/03 04:09:46;;;;;;;;;50.80;48.00;;;;;;;;5213946;28;8808;-74
2022/03/03 04:12:17;;;;;;;;;29.00;28.40;;;;;;;;5231144;28;8777;-75
2022/03/03 04:14:48;;;;;;;;;53.40;48.60;;;;;;;;5231351;28;9455;-74
2022/03/03 04:17:20;;;;;;;;;49.80;47.20;;;;;;;;5231118;28;8765;-75
2022/03/03 04:19:51;;;;;;;;;39.40;36.00;;;;;;;;5214390;28;8775;-74
2022/03/03 04:22:22;;;;;;;;;44.00;43.50;;;;;;;;5231098;28;8895;-75
2022/03/03 04:24:53;;;;;;;;;29.20;28.80;;;;;;;;5213449;28;12325;-73
2022/03/03 04:27:24;;;;;;;;;34.80;33.80;;;;;;;;5230507;28;8797;-72
2022/03/03 04:29:55;;;;;;;;;23.20;23.20;;;;;;;;5230231;28;8804;-72
2022/03/03 04:32:44;;;;;;;;;46.40;44.40;;;;;;;;5216587;28;8761;-72
2022/03/03 04:35:15;;;;;;;;;42.25;42.00;;;;;;;;5214097;28;8837;-72
2022/03/03 04:37:46;;;;;;;;;34.00;32.50;;;;;;;;5230772;28;11631;-72
2022/03/03 04:40:17;;;;;;;;;44.40;38.60;;;;;;;;5248052;28;11471;-72
2022/03/03 04:42:51;;;;;;;;;46.80;45.60;;;;;;;;5213101;28;8831;-74
2022/03/03 04:45:23;;;;;;;;;60.80;50.20;;;;;;;;5246999;28;8765;-74
2022/03/03 04:47:54;;;;;;;;;52.80;48.60;;;;;;;;5230780;28;9408;-74
2022/03/03 04:50:25;;;;;;;;;71.60;55.00;;;;;;;;5231061;28;8820;-75
2022/03/03 04:52:56;;;;;;;;;58.20;51.20;;;;;;;;5230415;28;8760;-75
2022/03/03 04:55:28;;;;;;;;;83.75;67.75;;;;;;;;5229848;28;8799;-78
2022/03/03 04:58:00;;;;;;;;;72.40;59.60;;;;;;;;5263241;28;8781;-74
2022/03/03 05:00:31;;;;;;;;;65.80;55.20;;;;;;;;5213767;28;8776;-75
2022/03/03 05:03:02;;;;;;;;;66.80;55.60;;;;;;;;5213587;28;8765;-75
2022/03/03 05:05:34;;;;;;;;;48.60;45.80;;;;;;;;5229909;28;8797;-73
2022/03/03 05:08:05;;;;;;;;;69.40;57.20;;;;;;;;5213120;28;9482;-72
2022/03/03 05:10:36;;;;;;;;;62.60;51.80;;;;;;;;5229632;28;8898;-68
2022/03/03 05:13:07;;;;;;;;;58.60;48.40;;;;;;;;5247998;28;8781;-71
2022/03/03 05:15:38;;;;;;;;;68.00;57.00;;;;;;;;5213470;28;8781;-72
2022/03/03 05:18:09;;;;;;;;;69.80;56.40;;;;;;;;5227117;28;8812;-72
2022/03/03 05:20:40;;;;;;;;;67.40;57.60;;;;;;;;5227832;28;8857;-73
2022/03/03 05:23:11;;;;;;;;;56.60;50.20;;;;;;;;5211650;28;8823;-72
2022/03/03 05:25:42;;;;;;;;;49.80;46.60;;;;;;;;5211628;28;9591;-73
2022/03/03 05:28:13;;;;;;;;;60.20;52.60;;;;;;;;5227543;28;8886;-73
2022/03/03 05:31:03;;;;;;;;;67.60;56.80;;;;;;;;5227550;28;9006;-73
2022/03/03 05:33:34;;;;;;;;;79.40;62.40;;;;;;;;5211414;28;8788;-73
2022/03/03 05:36:06;;;;;;;;;89.00;67.40;;;;;;;;5211141;28;8804;-72
2022/03/03 05:38:37;;;;;;;;;82.20;64.40;;;;;;;;5211021;28;8789;-72
2022/03/03 05:41:09;;;;;;;;;72.40;59.20;;;;;;;;5227344;28;8800;-71
2022/03/03 05:43:40;;;;;;;;;75.60;63.40;;;;;;;;5227311;28;8801;-72
2022/03/03 05:46:12;;;;;;;;;66.40;56.00;;;;;;;;5211078;28;8805;-72
2022/03/03 05:49:02;;;;;;;;;56.60;50.20;;;;;;;;5213111;28;8907;-73
2022/03/03 05:51:33;;;;;;;;;44.00;43.20;;;;;;;;5227147;28;8913;-72
2022/03/03 05:54:04;;;;;;;;;36.00;35.75;;;;;;;;5244999;28;8797;-71
2022/03/03 05:56:38;;;;;;;;;45.40;37.40;;;;;;;;5210610;28;8777;-71
2022/03/03 05:59:13;;;;;;;;;49.40;45.20;;;;;;;;5210808;28;8907;-72
2022/03/03 06:01:45;;;;;;;;;48.20;42.00;;;;;;;;5208793;28;8968;-72
2022/03/03 06:04:16;;;;;;;;;45.00;43.20;;;;;;;;5205318;28;8790;-72
2022/03/03 06:07:08;;;;;;;;;38.00;36.60;;;;;;;;5228287;28;8801;-72
2022/03/03 06:09:57;;;;;;;;;41.00;37.80;;;;;;;;5230900;28;8877;-72
2022/03/03 06:12:28;;;;;;;;;26.60;26.60;;;;;;;;5212305;28;8780;-72
2022/03/03 06:15:21;;;;;;;;;36.60;35.20;;;;;;;;5247011;28;8907;-71
2022/03/03 06:17:53;;;;;;;;;30.20;29.00;;;;;;;;5228887;28;8788;-72
2022/03/03 06:20:25;;;;;;;;;8.60;7.00;;;;;;;;5246516;28;8919;-71
2022/03/03 06:23:14;;;;;;;;;32.80;32.80;;;;;;;;5246358;28;8815;-71
2022/03/03 06:25:47;;;;;;;;;34.60;34.20;;;;;;;;5228317;28;8788;-72
2022/03/03 06:28:18;;;;;;;;;29.00;28.00;;;;;;;;5212021;28;8772;-73
2022/03/03 06:30:49;;;;;;;;;37.80;35.80;;;;;;;;5246528;28;8800;-73
2022/03/03 06:33:20;;;;;;;;;35.40;33.60;;;;;;;;5228502;28;8757;-72
2022/03/03 06:35:52;;;;;;;;;54.20;43.60;;;;;;;;5228404;28;8769;-72
2022/03/03 06:38:23;;;;;;;;;36.40;35.20;;;;;;;;5212285;28;8923;-73
2022/03/03 06:40:57;;;;;;;;;31.75;31.00;;;;;;;;5228520;28;8903;-73
2022/03/03 06:43:46;;;;;;;;;39.40;37.80;;;;;;;;5245822;28;11466;-72
2022/03/03 06:46:18;;;;;;;;;32.80;30.60;;;;;;;;5211573;28;8803;-72
2022/03/03 06:48:49;;;;;;;;;27.20;26.80;;;;;;;;5227737;28;8817;-73
2022/03/03 06:51:40;;;;;;;;;33.20;32.00;;;;;;;;5246274;28;8927;-72
2022/03/03 06:54:13;;;;;;;;;35.60;35.60;;;;;;;;5228239;28;8757;-73
2022/03/03 06:56:49;;;;;;;;;56.40;47.20;;;;;;;;5228175;28;8804;-73
2022/03/03 06:59:21;;;;;;;;;47.80;41.60;;;;;;;;5228354;28;8761;-73
2022/03/03 07:01:52;;;;;;;;;36.40;34.20;;;;;;;;5228383;28;8772;-72
2022/03/03 07:04:23;;;;;;;;;58.60;49.60;;;;;;;;5246129;28;8761;-72
2022/03/03 07:06:54;;;;;;;;;43.20;42.00;;;;;;;;5211491;28;9567;-72
2022/03/03 07:09:25;;;;;;;;;36.60;33.80;;;;;;;;5211406;28;8808;-72
2022/03/03 07:11:58;;;;;;;;;40.25;38.75;;;;;;;;5228149;28;9507;-73
2022/03/03 07:14:29;;;;;;;;;48.80;43.00;;;;;;;;5228144;28;8835;-72
2022/03/03 07:17:02;;;;;;;;;45.60;41.60;;;;;;;;5227983;28;8823;-72
2022/03/03 07:19:58;;;;;;;;;45.00;40.20;;;;;;;;5246181;28;8935;-71
2022/03/03 07:22:45;;;;;;;;;39.60;38.80;;;;;;;;5215019;28;8839;-72
2022/03/03 07:25:18;;;;;;;;;52.00;44.60;;;;;;;;5232270;28;8789;-73
2022/03/03 07:27:51;;;;;;;;;42.00;39.20;;;;;;;;5215351;28;8784;-72
2022/03/03 07:30:26;;;;;;;;;42.80;41.00;;;;;;;;5215122;28;8792;-73
2022/03/03 07:33:08;;;;;;;;;37.80;34.40;;;;;;;;5249699;28;8935;-72
2022/03/03 07:35:43;;;;;;;;;32.20;31.80;;;;;;;;5231800;28;8792;-72
2022/03/03 07:38:15;;;;;;;;;33.80;28.20;;;;;;;;5211101;28;8802;-72
2022/03/03 07:40:48;;;;;;;;;28.60;28.40;;;;;;;;5211393;28;9517;-73
2022/03/03 07:43:19;;;;;;;;;31.40;31.40;;;;;;;;5236635;28;8804;-71
2022/03/03 07:45:51;;;;;;;;;29.00;28.60;;;;;;;;5215318;28;8777;-74
2022/03/03 07:48:23;;;;;;;;;48.20;44.20;;;;;;;;5215104;28;8819;-72
2022/03/03 07:50:54;;;;;;;;;41.00;37.40;;;;;;;;5249229;28;8816;-72
2022/03/03 07:53:25;;;;;;;;;34.80;34.20;;;;;;;;5249483;28;8881;-73
2022/03/03 07:56:01;;;;;;;;;41.60;36.60;;;;;;;;5231398;28;8793;-73
2022/03/03 07:58:38;;;;;;;;;53.00;43.40;;;;;;;;5198351;28;8815;-77
2022/03/03 08:01:29;;;;;;;;;36.00;35.20;;;;;;;;5216371;28;8794;-70
2022/03/03 08:04:21;;;;;;;;;43.60;37.00;;;;;;;;5233656;28;8947;-71
2022/03/03 08:06:55;;;;;;;;;35.00;32.20;;;;;;;;5231318;28;8873;-70
2022/03/03 08:09:27;;;;;;;;;21.60;20.40;;;;;;;;5247373;28;8808;-72
2022/03/03 08:11:58;;;;;;;;;30.40;29.80;;;;;;;;5249047;28;8805;-71
2022/03/03 08:14:30;;;;;;;;;24.80;23.80;;;;;;;;5229748;28;8793;-71
2022/03/03 08:17:01;;;;;;;;;28.60;28.60;;;;;;;;5210484;28;8913;-71
2022/03/03 08:19:32;;;;;;;;;33.40;31.20;;;;;;;;5238428;28;8923;-72
2022/03/03 08:22:03;;;;;;;;;39.80;36.60;;;;;;;;5248578;28;8910;-72
2022/03/03 08:24:35;;;;;;;;;26.80;25.80;;;;;;;;5228985;28;8896;-72
2022/03/03 08:27:06;;;;;;;;;29.00;27.40;;;;;;;;5210843;28;8921;-72
2022/03/03 08:29:38;;;;;;;;;34.80;32.60;;;;;;;;5210273;28;8803;-72
2022/03/03 08:32:10;;;;;;;;;36.00;36.00;;;;;;;;5209427;28;8763;-73
2022/03/03 08:34:47;;;;;;;;;40.20;37.00;;;;;;;;5177567;28;8940;-72
2022/03/03 08:37:30;;;;;;;;;26.80;26.80;;;;;;;;5220227;28;8819;-73
2022/03/03 08:40:02;;;;;;;;;27.20;27.20;;;;;;;;5230747;28;8785;-73
2022/03/03 08:42:56;;;;;;;;;26.60;26.40;;;;;;;;5247709;28;8793;-72
2022/03/03 08:45:29;;;;;;;;;20.60;20.60;;;;;;;;5230641;28;8753;-72
2022/03/03 08:48:06;;;;;;;;;25.00;24.20;;;;;;;;5230431;28;8768;-72
2022/03/03 08:50:39;;;;;;;;;30.00;29.20;;;;;;;;5226206;28;8820;-73
2022/03/03 08:53:10;;;;;;;;;28.20;26.60;;;;;;;;5226148;28;8844;-72
2022/03/03 08:55:41;;;;;;;;;29.25;28.50;;;;;;;;5227614;28;8778;-73
2022/03/03 08:58:14;;;;;;;;;29.25;28.25;;;;;;;;5227529;28;9505;-71
2022/03/03 09:00:45;;;;;;;;;17.60;17.60;;;;;;;;5227203;28;11470;-71
2022/03/03 09:03:21;;;;;;;;;27.00;25.40;;;;;;;;5209714;28;8784;-72
2022/03/03 09:05:54;;;;;;;;;29.20;28.20;;;;;;;;5227279;28;8828;-71
2022/03/03 09:08:25;;;;;;;;;26.60;25.60;;;;;;;;5227612;28;8810;-71
2022/03/03 09:10:56;;;;;;;;;25.50;25.50;;;;;;;;5226225;28;8822;-72
2022/03/03 09:13:27;;;;;;;;;21.75;18.75;;;;;;;;5227094;28;11513;-72
2022/03/03 09:15:58;;;;;;;;;28.00;28.00;;;;;;;;5227025;28;11100;-71
2022/03/03 09:18:31;;;;;;;;;21.00;20.40;;;;;;;;5226240;28;11530;-72
2022/03/03 09:21:02;;;;;;;;;22.20;22.20;;;;;;;;5225788;28;8802;-72
2022/03/03 09:23:33;;;;;;;;;28.00;28.00;;;;;;;;5227200;28;8778;-72
2022/03/03 09:26:04;;;;;;;;;29.50;29.00;;;;;;;;5226800;28;8849;-72
2022/03/03 09:28:35;;;;;;;;;25.40;25.40;;;;;;;;5225624;28;8794;-72
2022/03/03 09:31:06;;;;;;;;;32.75;30.25;;;;;;;;5226764;28;8820;-72
2022/03/03 09:33:37;;;;;;;;;27.00;27.00;;;;;;;;5226971;28;11463;-72
2022/03/03 09:36:08;;;;;;;;;26.25;25.75;;;;;;;;5226753;28;8794;-72
2022/03/03 09:38:39;;;;;;;;;24.25;24.25;;;;;;;;5225343;28;9325;-72
2022/03/03 09:41:10;;;;;;;;;29.50;26.75;;;;;;;;5226545;28;8818;-72
2022/03/03 09:43:42;;;;;;;;;22.80;22.00;;;;;;;;5225143;28;8790;-72
2022/03/03 09:46:12;;;;;;;;;24.80;24.60;;;;;;;;5225319;28;8808;-73
2022/03/03 09:48:43;;;;;;;;;21.25;20.50;;;;;;;;5225472;28;8773;-73
2022/03/03 09:51:14;;;;;;;;;29.60;29.60;;;;;;;;5225011;28;8850;-73
2022/03/03 09:53:49;;;;;;;;;28.75;28.75;;;;;;;;5226385;28;8821;-73
2022/03/03 09:56:20;;;;;;;;;24.20;23.80;;;;;;;;5226509;28;11675;-72
2022/03/03 09:58:51;;;;;;;;;27.25;26.00;;;;;;;;5226456;28;8806;-72
2022/03/03 10:01:26;;;;;;;;;28.75;28.75;;;;;;;;5226351;28;8806;-72
2022/03/03 10:03:58;;;;;;;;;33.40;32.00;;;;;;;;5224987;28;11112;-72
2022/03/03 10:06:29;;;;;;;;;40.80;37.00;;;;;;;;5225241;28;9543;-73
2022/03/03 10:09:00;;;;;;;;;39.40;36.40;;;;;;;;5225086;28;8778;-73
2022/03/03 10:11:31;;;;;;;;;24.60;24.40;;;;;;;;5224835;28;8762;-72
2022/03/03 10:14:02;;;;;;;;;21.25;21.25;;;;;;;;5224850;28;9432;-72
2022/03/03 10:16:33;;;;;;;;;29.00;28.25;;;;;;;;5224559;28;8917;-73
2022/03/03 10:19:05;;;;;;;;;41.50;38.25;;;;;;;;5226078;28;8794;-72
2022/03/03 10:21:38;;;;;;;;;28.20;26.80;;;;;;;;5208117;28;8818;-72
2022/03/03 10:24:19;;;;;;;;;22.20;21.80;;;;;;;;5224563;28;8799;-73
2022/03/03 10:27:04;;;;;;;;;27.20;22.40;;;;;;;;5207981;28;8778;-72
2022/03/03 10:29:35;;;;;;;;;24.00;24.00;;;;;;;;5208156;28;8833;-73
2022/03/03 10:32:06;;;;;;;;;64.80;54.80;;;;;;;;5224354;28;8774;-72
2022/03/03 10:34:38;;;;;;;;;52.25;46.00;;;;;;;;5225825;28;8859;-73
2022/03/03 10:37:16;;;;;;;;;29.80;29.00;;;;;;;;5224505;28;11537;-71
2022/03/03 10:40:09;;;;;;;;;17.80;17.80;;;;;;;;5225114;28;8806;-73
2022/03/03 10:42:50;;;;;;;;;26.00;25.60;;;;;;;;5225399;28;8777;-73
2022/03/03 10:45:21;;;;;;;;;22.20;22.20;;;;;;;;5223884;28;8789;-73
2022/03/03 10:48:00;;;;;;;;;15.50;15.50;;;;;;;;5207460;28;8782;-73
2022/03/03 10:50:47;;;;;;;;;15.80;15.80;;;;;;;;5235413;28;9788;-73
2022/03/03 10:53:19;;;;;;;;;15.40;15.40;;;;;;;;5228353;28;8765;-71
2022/03/03 10:56:04;;;;;;;;;23.80;22.80;;;;;;;;5248771;28;9467;-71
2022/03/03 10:58:47;;;;;;;;;19.20;19.00;;;;;;;;5235766;28;8796;-72
2022/03/03 11:01:20;;;;;;;;;16.40;16.00;;;;;;;;5218783;28;8769;-71
2022/03/03 11:03:51;;;;;;;;;17.60;17.40;;;;;;;;5253043;28;8779;-71
2022/03/03 11:06:29;;;;;;;;;24.20;24.00;;;;;;;;5235012;28;8801;-71
2022/03/03 11:09:00;;;;;;;;;20.20;19.00;;;;;;;;5234985;28;8815;-71
2022/03/03 11:11:31;;;;;;;;;22.80;22.60;;;;;;;;5253229;28;8781;-71
2022/03/03 11:14:02;;;;;;;;;18.80;18.80;;;;;;;;5251770;28;8805;-71
2022/03/03 11:16:34;;;;;;;;;28.40;28.20;;;;;;;;5234598;28;8893;-71
2022/03/03 11:19:05;;;;;;;;;13.40;11.40;;;;;;;;5235091;28;8808;-72
2022/03/03 11:21:37;;;;;;;;;9.60;8.80;;;;;;;;5253337;28;8777;-71
2022/03/03 11:24:09;;;;;;;;;13.40;13.20;;;;;;;;5234701;28;8923;-71
2022/03/03 11:26:41;;;;;;;;;14.20;14.00;;;;;;;;5234979;28;8804;-71
2022/03/03 11:29:37;;;;;;;;;21.40;20.80;;;;;;;;5252080;28;8824;-71
2022/03/03 11:32:14;;;;;;;;;20.60;20.00;;;;;;;;5251998;28;8877;-71
2022/03/03 11:34:46;;;;;;;;;12.60;12.60;;;;;;;;5218315;28;8808;-72
2022/03/03 11:37:20;;;;;;;;;14.80;14.80;;;;;;;;5234855;28;8833;-71
2022/03/03 11:40:01;;;;;;;;;21.80;21.80;;;;;;;;5234763;28;8784;-72
2022/03/03 11:42:46;;;;;;;;;17.60;17.60;;;;;;;;5235322;28;8792;-72
2022/03/03 11:45:18;;;;;;;;;21.80;21.20;;;;;;;;5234794;28;8777;-73
2022/03/03 11:48:07;;;;;;;;;15.40;15.40;;;;;;;;5234485;28;8840;-71
2022/03/03 11:50:38;;;;;;;;;18.60;17.40;;;;;;;;5217919;28;8827;-71
2022/03/03 11:53:09;;;;;;;;;8.40;7.80;;;;;;;;5254705;28;8789;-72
2022/03/03 11:55:46;;;;;;;;;23.75;23.75;;;;;;;;5252585;28;8769;-71
2022/03/03 11:58:27;;;;;;;;;21.40;21.00;;;;;;;;5252640;28;8842;-71
2022/03/03 12:00:58;;;;;;;;;41.80;36.60;;;;;;;;5252748;28;8776;-73
2022/03/03 12:03:29;;;;;;;;;50.60;45.20;;;;;;;;5251315;28;8780;-72
2022/03/03 12:06:12;;;;;;;;;55.40;45.40;;;;;;;;5234415;28;8824;-73
2022/03/03 12:08:43;;;;;;;;;43.40;39.00;;;;;;;;5230135;28;8851;-72
2022/03/03 12:11:18;;;;;;;;;32.40;31.20;;;;;;;;5213674;28;8820;-73
2022/03/03 12:13:50;;;;;;;;;36.40;35.20;;;;;;;;5231400;28;8778;-73
2022/03/03 12:16:34;;;;;;;;;37.20;34.60;;;;;;;;5249152;28;8771;-73
2022/03/03 12:19:09;;;;;;;;;38.80;36.80;;;;;;;;5231411;28;8847;-71
2022/03/03 12:21:50;;;;;;;;;35.60;35.20;;;;;;;;5231096;28;8812;-73
2022/03/03 12:24:28;;;;;;;;;32.00;32.00;;;;;;;;5231262;28;8813;-72
2022/03/03 12:27:01;;;;;;;;;61.00;52.00;;;;;;;;5214788;28;8811;-73
2022/03/03 12:29:34;;;;;;;;;44.40;41.00;;;;;;;;5248137;28;8856;-72
2022/03/03 12:32:23;;;;;;;;;28.40;27.60;;;;;;;;5248654;28;8808;-72
2022/03/03 12:34:55;;;;;;;;;23.60;22.00;;;;;;;;5230147;28;8793;-72
2022/03/03 12:37:27;;;;;;;;;24.40;24.00;;;;;;;;5248498;28;8785;-72
2022/03/03 12:40:03;;;;;;;;;28.20;28.20;;;;;;;;5230805;28;8808;-71
2022/03/03 12:42:34;;;;;;;;;23.20;22.40;;;;;;;;5229409;28;8808;-72
2022/03/03 12:45:09;;;;;;;;;26.40;24.40;;;;;;;;5230300;28;8825;-73
2022/03/03 12:47:48;;;;;;;;;27.80;26.00;;;;;;;;5248373;28;8777;-72
2022/03/03 12:50:21;;;;;;;;;42.00;38.00;;;;;;;;5229959;28;8816;-72
2022/03/03 12:52:58;;;;;;;;;35.40;34.40;;;;;;;;5249105;28;8781;-72
2022/03/03 12:55:32;;;;;;;;;34.40;33.40;;;;;;;;5214544;28;8776;-72
2022/03/03 12:58:04;;;;;;;;;31.80;29.80;;;;;;;;5215266;28;9328;-71
2022/03/03 13:00:40;;;;;;;;;32.40;31.00;;;;;;;;5215245;28;8795;-72
2022/03/03 13:03:12;;;;;;;;;43.80;42.00;;;;;;;;5213658;28;8793;-72
2022/03/03 13:05:50;;;;;;;;;34.20;34.20;;;;;;;;5213362;28;8817;-71
2022/03/03 13:08:23;;;;;;;;;26.00;26.00;;;;;;;;5213502;28;9609;-73
2022/03/03 13:10:55;;;;;;;;;25.20;21.20;;;;;;;;5230091;28;9499;-73
2022/03/03 13:13:27;;;;;;;;;28.20;28.20;;;;;;;;5247816;28;8831;-72
2022/03/03 13:16:10;;;;;;;;;32.20;31.00;;;;;;;;5247797;28;8792;-72
2022/03/03 13:18:42;;;;;;;;;23.40;21.00;;;;;;;;5229956;28;8780;-72
2022/03/03 13:21:14;;;;;;;;;22.40;21.40;;;;;;;;5247585;28;8780;-72
2022/03/03 13:23:46;;;;;;;;;24.20;24.20;;;;;;;;5228978;28;9570;-72
2022/03/03 13:26:19;;;;;;;;;63.40;51.40;;;;;;;;5213162;28;8777;-71
2022/03/03 13:28:55;;;;;;;;;34.80;32.80;;;;;;;;5247649;28;8853;-74
2022/03/03 13:31:27;;;;;;;;;22.60;21.80;;;;;;;;5229396;28;8820;-73
2022/03/03 13:34:02;;;;;;;;;26.00;25.80;;;;;;;;5212864;28;8772;-73
2022/03/03 13:36:40;;;;;;;;;29.40;25.80;;;;;;;;5229593;28;8769;-73
2022/03/03 13:39:34;;;;;;;;;31.20;31.00;;;;;;;;5232181;28;8785;-73
2022/03/03 13:42:09;;;;;;;;;25.80;24.40;;;;;;;;5226479;28;8834;-75
2022/03/03 13:44:55;;;;;;;;;26.80;25.60;;;;;;;;5197163;28;8863;-72
2022/03/03 13:47:29;;;;;;;;;24.20;23.20;;;;;;;;5219993;28;8809;-73
2022/03/03 13:50:00;;;;;;;;;30.80;30.00;;;;;;;;5246979;28;8893;-73
2022/03/03 13:52:34;;;;;;;;;29.00;28.60;;;;;;;;5213074;28;8903;-72
2022/03/03 13:55:08;;;;;;;;;34.40;31.60;;;;;;;;5212711;28;8793;-72
2022/03/03 13:57:49;;;;;;;;;23.00;22.60;;;;;;;;5246809;28;9526;-73
2022/03/03 14:00:25;;;;;;;;;38.20;36.80;;;;;;;;5228671;28;8785;-72
2022/03/03 14:03:05;;;;;;;;;34.40;33.20;;;;;;;;5213428;28;8794;-73
2022/03/03 14:06:01;;;;;;;;;28.00;25.20;;;;;;;;5234716;28;9570;-72
2022/03/03 14:08:32;;;;;;;;;40.60;38.00;;;;;;;;5225280;28;8801;-72
2022/03/03 14:11:11;;;;;;;;;44.00;40.60;;;;;;;;5229044;28;8793;-72
2022/03/03 14:13:45;;;;;;;;;38.20;37.00;;;;;;;;5246648;28;8853;-73
2022/03/03 14:16:20;;;;;;;;;35.20;32.40;;;;;;;;5211555;28;8923;-72
2022/03/03 14:18:52;;;;;;;;;29.60;28.80;;;;;;;;5212353;28;8819;-73
2022/03/03 14:21:41;;;;;;;;;34.20;34.00;;;;;;;;5228651;28;8776;-73
2022/03/03 14:24:13;;;;;;;;;21.25;21.25;;;;;;;;5228196;28;8809;-72
2022/03/03 14:26:44;;;;;;;;;30.20;28.40;;;;;;;;5228152;28;10920;-72
2022/03/03 14:29:15;;;;;;;;;32.75;32.00;;;;;;;;5245934;28;9547;-72
2022/03/03 14:31:46;;;;;;;;;35.60;35.40;;;;;;;;5211119;28;11505;-72
2022/03/03 14:34:17;;;;;;;;;53.40;46.60;;;;;;;;5228307;28;8823;-72
2022/03/03 14:36:48;;;;;;;;;38.75;36.50;;;;;;;;5228079;28;8789;-72
2022/03/03 14:39:19;;;;;;;;;36.20;36.00;;;;;;;;5245276;28;12305;-71
2022/03/03 14:41:50;;;;;;;;;32.20;31.60;;;;;;;;5246262;28;8802;-71
2022/03/03 14:44:21;;;;;;;;;43.75;42.25;;;;;;;;5228853;28;8923;-72
2022/03/03 14:46:52;;;;;;;;;43.20;41.40;;;;;;;;5228160;28;11475;-72
2022/03/03 14:49:23;;;;;;;;;75.00;59.25;;;;;;;;5210724;28;8785;-74
2022/03/03 14:51:56;;;;;;;;;73.75;59.50;;;;;;;;5211589;28;11527;-72
2022/03/03 14:54:45;;;;;;;;;48.40;45.20;;;;;;;;5231245;28;11500;-72
2022/03/03 14:57:16;;;;;;;;;55.20;47.40;;;;;;;;5240661;28;8829;-73
2022/03/03 14:59:48;;;;;;;;;45.40;41.20;;;;;;;;5245009;28;8827;-73
2022/03/03 15:02:19;;;;;;;;;53.80;47.60;;;;;;;;5246084;28;8798;-73
2022/03/03 15:04:49;;;;;;;;;65.75;56.25;;;;;;;;5244579;28;8795;-73
2022/03/03 15:07:20;;;;;;;;;52.75;45.25;;;;;;;;5234313;28;8897;-78